Garulfo — FJXL — position and weather

sailwx.info

Track history (hours):
 
Tides and Currents Weather Stations Pressure Air Temp Water Temp Dewpoint Dewpoint Depression Visibility Wind Speed Wind Dir Waves Ship Positions

Garulfo

Last reported at 2017-Nov-23 13:24 UTC. Time now 2018-Jan-21 14:56 UTC.
Position N 28°08' W 015°26'.
Warning: this ship's position is 59 days out of date.

Length 17 m.

Type: Sailing vessel. MMSI: 228085900.

Date/timePositionNaut miles runAvg speedWind from/ knotsBaromVisibWave heightAir tempDewpointWater temp
2017-Nov-23 13:24N 28°08' W 015°26'0 0.1
2017-Nov-23 12:51N 28°08' W 015°25'0 0.0
2017-Nov-23 12:24N 28°08' W 015°25'0 0.0
2017-Nov-23 11:54N 28°08' W 015°25'0 0.0
2017-Nov-23 11:24N 28°08' W 015°25'0 0.3
2017-Nov-23 10:56N 28°08' W 015°25'0 0.1
2017-Nov-23 10:30N 28°08' W 015°25'0 0.0
2017-Nov-23 09:51N 28°08' W 015°25'1 3.6
2017-Nov-23 09:30N 28°07' W 015°24'3 5.8
2017-Nov-23 09:00N 28°08' W 015°21'3 6.3
2017-Nov-23 08:29N 28°09' W 015°18'3 5.6
2017-Nov-23 07:59N 28°10' W 015°15'2 4.8
2017-Nov-23 07:29N 28°12' W 015°12'3 6.2
2017-Nov-23 06:59N 28°13' W 015°09'3 6.3
2017-Nov-23 06:28N 28°15' W 015°06'3 6.6
2017-Nov-23 05:58N 28°17' W 015°03'3 6.2
2017-Nov-23 05:27N 28°18' W 015°00'3 6.1
2017-Nov-23 04:57N 28°20' W 014°57'3 6.0
2017-Nov-23 04:27N 28°22' W 014°54'3 6.1
2017-Nov-23 03:56N 28°24' W 014°52'3 6.3
2017-Nov-23 03:26N 28°25' W 014°49'6 6.1
2017-Nov-23 02:31N 28°28' W 014°43'1 6.1
2017-Nov-23 02:25N 28°28' W 014°42'2 5.9
2017-Nov-23 02:01N 28°30' W 014°40'3 5.8
2017-Nov-23 01:25N 28°31' W 014°37'2 5.9
2017-Nov-23 01:01N 28°32' W 014°34'16 5.9
2017-Nov-22 22:21N 28°40' W 014°18'2 5.4
2017-Nov-22 22:01N 28°40' W 014°16'3 5.6
2017-Nov-22 21:31N 28°42' W 014°13'  
Track history (hours):
 
Tides and Currents Weather Stations Pressure Air Temp Water Temp Dewpoint Dewpoint Depression Visibility Wind Speed Wind Dir Waves Ship Positions

Garulfo

Last reported at 2017-Nov-23 13:24 UTC. Time now 2018-Jan-21 14:56 UTC.
Position N 28°08' W 015°26'.
Warning: this ship's position is 59 days out of date.

Length 17 m.

Type: Sailing vessel. MMSI: 228085900.

Date/timePositionNaut miles runAvg speedWind from/ knotsBaromVisibWave heightAir tempDewpointWater temp
2017-Nov-23 13:24N 28°08' W 015°26'0 0.1
2017-Nov-23 12:51N 28°08' W 015°25'0 0.0
2017-Nov-23 12:24N 28°08' W 015°25'0 0.0
2017-Nov-23 11:54N 28°08' W 015°25'0 0.0
2017-Nov-23 11:24N 28°08' W 015°25'0 0.3
2017-Nov-23 10:56N 28°08' W 015°25'0 0.1
2017-Nov-23 10:30N 28°08' W 015°25'0 0.0
2017-Nov-23 09:51N 28°08' W 015°25'1 3.6
2017-Nov-23 09:30N 28°07' W 015°24'3 5.8
2017-Nov-23 09:00N 28°08' W 015°21'3 6.3
2017-Nov-23 08:29N 28°09' W 015°18'3 5.6
2017-Nov-23 07:59N 28°10' W 015°15'2 4.8
2017-Nov-23 07:29N 28°12' W 015°12'3 6.2
2017-Nov-23 06:59N 28°13' W 015°09'3 6.3
2017-Nov-23 06:28N 28°15' W 015°06'3 6.6
2017-Nov-23 05:58N 28°17' W 015°03'3 6.2
2017-Nov-23 05:27N 28°18' W 015°00'3 6.1
2017-Nov-23 04:57N 28°20' W 014°57'3 6.0
2017-Nov-23 04:27N 28°22' W 014°54'3 6.1
2017-Nov-23 03:56N 28°24' W 014°52'3 6.3
2017-Nov-23 03:26N 28°25' W 014°49'6 6.1
2017-Nov-23 02:31N 28°28' W 014°43'1 6.1
2017-Nov-23 02:25N 28°28' W 014°42'2 5.9
2017-Nov-23 02:01N 28°30' W 014°40'3 5.8
2017-Nov-23 01:25N 28°31' W 014°37'2 5.9
2017-Nov-23 01:01N 28°32' W 014°34'16 5.9
2017-Nov-22 22:21N 28°40' W 014°18'2 5.4
2017-Nov-22 22:01N 28°40' W 014°16'3 5.6
2017-Nov-22 21:31N 28°42' W 014°13'  

Dump ship's entire track history